Pagrindinis puslapis
METAR-TAF:

METAR-TAF

Oro uostai :

Resifė, Pernambuco, Brazilija

platuma: 08-08S, ilguma: 034-55W, Aukštis: 19 m

Dabartinis oras

Ataskaita buvo paskelbta 28 minutes, ne 07:00 UTC
Vėjas 9 kt iš Pietryčių
Temperatūra 26°C
Drėgmė 74%
Slėgis 1013 hPa
Matomumas 10 km arba daugiau
Išsisklaidę debesys ne aukštis 2200 ft

METAR: SBRF 010700Z 14009KT 9999 SCT022 26/21 Q1013

Laikas: 04:28 (07:28 UTC)

Prognozė

Ataskaita buvo paskelbta 4 valandos ir 28 minutes, ne 03:00 UTC
Prognozė galioja nuo 01 metu 06 UTC su 02 metu 06 UTC
Vėjas 10 kt iš Pietryčių
Matomumas 10 km arba daugiau
Išsisklaidę debesys ne aukštis 2000 ft

TAF: SBRF 010300Z 0106/0206 13010KT 9999 SCT020 TN25/0108Z TX29/0115Z RMK PHD

Orai ataskaitas ir orų prognozės (METAR, TAF).

turimą stotys yra geltonos ir raudonos taškus žemėlapyje.

Perkelti pele per norėdami pamatyti stoties vardą.

Tada spustelėkite, norėdami matyti oro stebėjimo ir prognozės.

Norėdami pakeisti žemėlapį: spustelėkite ant žalios mygtukų su juodo kryžiaus žemyn,; žalią mygtuką su brūkšneliu, jei norite nutolinti; arba žalių rodyklių gretimoms žemėlapius.


METAR-TAF: